Time;durP1;ratioP1;P1;durP2;ratioP2;P2;SDS_P1;SDS_P2;PMS_P1;PMS_P2;Temp;Humidity;BMP_temperature;BMP_pressure;BME280_temperature;BME280_humidity;BME280_pressure;Samples;Min_cycle;Max_cycle;Signal;HPM_P1;HPM_P2
2023/07/23 00:00:14;;;;;;;10.93;5.13;;;18.40;89.50;;;;;;5094825;28;20122;-78
2023/07/23 00:02:40;;;;;;;9.00;5.63;;;18.40;89.30;;;;;;5094746;28;20037;-77
2023/07/23 00:05:06;;;;;;;10.27;5.30;;;18.40;89.10;;;;;;5095674;28;20055;-77
2023/07/23 00:07:31;;;;;;;8.25;5.45;;;18.40;89.20;;;;;;5094732;28;20096;-77
2023/07/23 00:09:57;;;;;;;8.52;5.78;;;18.30;89.00;;;;;;5095627;28;20039;-77
2023/07/23 00:12:22;;;;;;;7.78;5.45;;;18.40;89.20;;;;;;5094551;28;20021;-77
2023/07/23 00:14:48;;;;;;;8.65;5.35;;;18.40;89.30;;;;;;5077816;28;20451;-77
2023/07/23 00:17:14;;;;;;;8.40;5.00;;;18.40;89.10;;;;;;5094549;28;20088;-77
2023/07/23 00:19:39;;;;;;;9.43;4.80;;;18.40;89.00;;;;;;5094400;28;20025;-78
2023/07/23 00:22:05;;;;;;;8.40;5.35;;;18.40;88.80;;;;;;5094464;28;20040;-77
2023/07/23 00:24:30;;;;;;;8.93;5.47;;;18.40;88.80;;;;;;5095460;28;20052;-77
2023/07/23 00:26:56;;;;;;;8.80;4.80;;;18.40;88.60;;;;;;5077586;28;20041;-77
2023/07/23 00:29:22;;;;;;;8.27;5.07;;;18.40;88.70;;;;;;5094167;28;20020;-78
2023/07/23 00:31:47;;;;;;;10.38;5.15;;;18.40;88.60;;;;;;5094290;28;20403;-77
2023/07/23 00:34:13;;;;;;;9.45;5.18;;;18.30;88.60;;;;;;5077373;28;20028;-77
2023/07/23 00:36:39;;;;;;;10.07;5.47;;;18.30;88.90;;;;;;5077428;28;20050;-77
2023/07/23 00:39:05;;;;;;;7.85;4.50;;;18.30;88.80;;;;;;5093978;28;20032;-77
2023/07/23 00:41:31;;;;;;;8.98;5.03;;;18.20;88.80;;;;;;5094185;28;20029;-77
2023/07/23 00:43:57;;;;;;;8.95;4.90;;;18.30;88.70;;;;;;5077165;28;20096;-77
2023/07/23 00:46:23;;;;;;;10.07;4.60;;;18.20;88.80;;;;;;5093887;28;20036;-77
2023/07/23 00:48:49;;;;;;;11.38;5.53;;;18.20;89.00;;;;;;5093989;28;20044;-77
2023/07/23 00:51:15;;;;;;;8.68;5.07;;;18.30;89.20;;;;;;5094760;28;20036;-77
2023/07/23 00:53:41;;;;;;;8.00;5.53;;;18.30;89.80;;;;;;5093613;28;20058;-78
2023/07/23 00:56:07;;;;;;;8.70;4.72;;;18.30;89.00;;;;;;5094508;28;20424;-78
2023/07/23 00:58:33;;;;;;;7.45;4.47;;;18.30;88.70;;;;;;5094819;28;20031;-77
2023/07/23 01:00:59;;;;;;;8.02;4.70;;;18.20;88.80;;;;;;5093514;28;20021;-78
2023/07/23 01:03:25;;;;;;;8.88;4.57;;;18.30;88.90;;;;;;5093585;28;20043;-77
2023/07/23 01:05:52;;;;;;;9.20;5.28;;;18.30;88.90;;;;;;5094531;28;20059;-77
2023/07/23 01:08:19;;;;;;;11.35;4.97;;;18.20;88.90;;;;;;5094431;28;20025;-77
2023/07/23 01:10:45;;;;;;;8.48;4.70;;;18.20;89.00;;;;;;5094379;28;20036;-77
2023/07/23 01:13:11;;;;;;;8.73;4.80;;;18.20;88.80;;;;;;5093350;28;20052;-78
2023/07/23 01:15:37;;;;;;;7.00;4.75;;;18.10;89.00;;;;;;5093407;28;20025;-78
2023/07/23 01:18:04;;;;;;;7.70;4.63;;;18.10;89.20;;;;;;5094243;28;20025;-77
2023/07/23 01:20:29;;;;;;;7.43;4.75;;;18.10;90.00;;;;;;5076628;28;20033;-77
2023/07/23 01:22:55;;;;;;;7.93;4.63;;;18.20;89.40;;;;;;5093182;28;20060;-77
2023/07/23 01:25:21;;;;;;;7.38;4.38;;;18.20;89.20;;;;;;5093071;28;20040;-77
2023/07/23 01:27:46;;;;;;;8.00;4.97;;;18.20;89.10;;;;;;5076467;28;20055;-77
2023/07/23 01:30:12;;;;;;;12.05;5.43;;;18.30;89.00;;;;;;5076306;28;20025;-77
2023/07/23 01:32:39;;;;;;;8.70;4.90;;;18.30;88.70;;;;;;5092963;28;20025;-77
2023/07/23 01:35:13;;;;;;;8.15;5.80;;;18.30;88.60;;;;;;5092860;28;20021;-78
2023/07/23 01:37:39;;;;;;;7.47;4.95;;;18.20;88.70;;;;;;5093889;28;20020;-78
2023/07/23 01:40:05;;;;;;;8.43;4.97;;;18.20;89.00;;;;;;5094020;28;20033;-78
2023/07/23 01:42:31;;;;;;;8.93;4.95;;;18.20;89.10;;;;;;5092256;28;20029;-77
2023/07/23 01:45:03;;;;;;;8.13;5.53;;;18.20;89.20;;;;;;5076053;28;20059;-78
2023/07/23 01:47:29;;;;;;;7.72;5.20;;;18.30;89.10;;;;;;5093916;28;20036;-77
2023/07/23 01:49:55;;;;;;;8.75;4.93;;;18.30;89.00;;;;;;5092750;28;20063;-77
2023/07/23 01:52:20;;;;;;;8.93;5.07;;;18.30;88.90;;;;;;5092538;28;20183;-77
2023/07/23 01:54:46;;;;;;;8.40;5.32;;;18.30;88.70;;;;;;5092822;28;20028;-77
2023/07/23 01:57:12;;;;;;;8.02;5.10;;;18.20;89.00;;;;;;5075771;28;20071;-77
2023/07/23 01:59:37;;;;;;;8.82;5.15;;;18.20;89.20;;;;;;5092574;28;20039;-78
2023/07/23 02:02:06;;;;;;;7.50;5.03;;;18.10;89.20;;;;;;5092586;28;20048;-77
2023/07/23 02:04:32;;;;;;;8.43;5.68;;;18.10;89.20;;;;;;5092563;28;20027;-77
2023/07/23 02:06:57;;;;;;;11.05;5.53;;;18.20;89.30;;;;;;5093452;28;20029;-77
2023/07/23 02:09:23;;;;;;;8.63;5.25;;;18.20;89.30;;;;;;5092645;28;20036;-78
2023/07/23 02:11:48;;;;;;;7.50;5.13;;;18.20;89.10;;;;;;5092395;28;20066;-77
2023/07/23 02:14:14;;;;;;;7.95;5.05;;;18.20;89.20;;;;;;5092402;28;20067;-77
2023/07/23 02:16:39;;;;;;;9.68;5.38;;;18.20;89.10;;;;;;5093354;28;20021;-77
2023/07/23 02:19:05;;;;;;;8.68;5.32;;;18.20;89.20;;;;;;5093460;28;20033;-77
2023/07/23 02:21:31;;;;;;;7.28;5.05;;;18.20;89.20;;;;;;5075582;28;20028;-77
2023/07/23 02:23:56;;;;;;;9.25;5.40;;;18.20;89.30;;;;;;5092328;28;20021;-77
2023/07/23 02:26:22;;;;;;;9.40;5.40;;;18.10;89.50;;;;;;5092430;28;20037;-77
2023/07/23 02:28:48;;;;;;;11.80;5.47;;;18.10;89.40;;;;;;5092315;28;20020;-78
2023/07/23 02:31:13;;;;;;;13.57;5.55;;;18.10;89.60;;;;;;5093226;28;20037;-77
2023/07/23 02:33:39;;;;;;;9.80;5.55;;;18.10;89.60;;;;;;5093049;28;20033;-78
2023/07/23 02:36:05;;;;;;;10.38;5.47;;;18.10;89.50;;;;;;5075477;28;20029;-77
2023/07/23 02:38:30;;;;;;;9.23;5.72;;;18.10;89.40;;;;;;5092186;28;20028;-77
2023/07/23 02:40:57;;;;;;;8.60;5.78;;;18.00;89.50;;;;;;5092216;28;20056;-77
2023/07/23 02:43:22;;;;;;;9.20;6.07;;;18.10;89.40;;;;;;5092077;28;20024;-77
2023/07/23 02:45:49;;;;;;;9.52;5.75;;;18.00;89.40;;;;;;5092208;28;20039;-78
2023/07/23 02:48:15;;;;;;;11.85;5.78;;;18.00;89.40;;;;;;5092026;28;20090;-78
2023/07/23 02:50:41;;;;;;;8.60;5.03;;;18.10;89.40;;;;;;5093044;28;20088;-77
2023/07/23 02:53:07;;;;;;;9.77;5.28;;;18.00;89.20;;;;;;5092075;28;20033;-77
2023/07/23 02:55:33;;;;;;;10.80;5.82;;;18.00;89.10;;;;;;5096989;28;20063;-77
2023/07/23 02:58:00;;;;;;;9.55;5.82;;;18.00;89.00;;;;;;5095796;28;20117;-78
2023/07/23 03:00:28;;;;;;;14.63;6.18;;;18.00;88.90;;;;;;5079417;28;20032;-77
2023/07/23 03:02:55;;;;;;;8.73;5.25;;;18.00;89.00;;;;;;5095965;28;20058;-77
2023/07/23 03:05:20;;;;;;;8.65;5.68;;;17.90;89.00;;;;;;5095785;28;20040;-77
2023/07/23 03:07:46;;;;;;;11.43;6.10;;;17.90;88.90;;;;;;5096007;28;20028;-77
2023/07/23 03:10:12;;;;;;;9.68;5.82;;;17.90;88.90;;;;;;5095833;28;20036;-77
2023/07/23 03:12:38;;;;;;;13.25;5.60;;;17.80;88.90;;;;;;5095660;28;20043;-77
2023/07/23 03:15:05;;;;;;;9.02;5.72;;;17.80;88.90;;;;;;5078945;28;20060;-77
2023/07/23 03:17:30;;;;;;;10.80;5.15;;;17.80;88.90;;;;;;5079052;28;20097;-77
2023/07/23 03:19:56;;;;;;;9.70;6.00;;;17.80;88.80;;;;;;5096518;28;20029;-77
2023/07/23 03:22:22;;;;;;;11.02;5.40;;;17.80;88.70;;;;;;5096473;28;20028;-78
2023/07/23 03:24:47;;;;;;;8.82;5.57;;;17.80;88.70;;;;;;5096439;28;20031;-77
2023/07/23 03:27:13;;;;;;;10.48;5.47;;;17.80;88.60;;;;;;5096403;28;20092;-78
2023/07/23 03:29:39;;;;;;;8.38;5.13;;;17.80;88.30;;;;;;5096487;28;20460;-77
2023/07/23 03:32:05;;;;;;;9.82;5.45;;;17.80;88.40;;;;;;5096209;28;20028;-77
2023/07/23 03:34:31;;;;;;;8.25;5.10;;;17.80;88.20;;;;;;5096176;28;20025;-78
2023/07/23 03:36:56;;;;;;;7.57;4.88;;;17.80;88.20;;;;;;5095199;28;20035;-77
2023/07/23 03:39:22;;;;;;;8.57;5.07;;;17.70;88.10;;;;;;5095169;28;20090;-78
2023/07/23 03:41:48;;;;;;;10.05;5.05;;;17.70;88.00;;;;;;5095412;28;20025;-78
2023/07/23 03:44:13;;;;;;;9.93;4.90;;;17.70;87.90;;;;;;5095273;28;20092;-78
2023/07/23 03:47:10;;;;;;;11.00;5.10;;;17.70;87.70;;;;;;5096074;28;20028;-77
2023/07/23 03:49:36;;;;;;;8.60;4.75;;;17.80;87.40;;;;;;5096044;28;20016;-77
2023/07/23 03:52:01;;;;;;;8.20;4.85;;;17.80;87.40;;;;;;5095880;28;20025;-77
2023/07/23 03:54:27;;;;;;;10.30;5.20;;;17.70;87.20;;;;;;5095142;28;20060;-78
2023/07/23 03:56:53;;;;;;;8.48;4.22;;;17.70;87.20;;;;;;5095665;28;20045;-78
2023/07/23 03:59:19;;;;;;;7.18;4.68;;;17.70;87.00;;;;;;5095807;28;20028;-77
2023/07/23 04:01:45;;;;;;;9.80;4.28;;;17.80;86.30;;;;;;5095799;28;20038;-77
2023/07/23 04:04:10;;;;;;;9.48;4.57;;;17.70;86.20;;;;;;5077399;28;20029;-77
2023/07/23 04:06:36;;;;;;;9.18;4.13;;;17.80;85.90;;;;;;5094966;28;20036;-77
2023/07/23 04:09:02;;;;;;;6.82;4.25;;;17.80;85.50;;;;;;5095649;28;20059;-77
2023/07/23 04:11:27;;;;;;;8.27;4.30;;;17.80;86.40;;;;;;5077953;28;20040;-77
2023/07/23 04:13:53;;;;;;;9.98;4.32;;;17.80;85.20;;;;;;5094513;28;20032;-77
2023/07/23 04:16:19;;;;;;;9.48;4.38;;;17.80;85.20;;;;;;5077785;28;20025;-78
2023/07/23 04:18:49;;;;;;;7.53;4.10;;;17.80;84.80;;;;;;5094460;28;20205;-77
2023/07/23 04:21:18;;;;;;;6.70;4.18;;;17.90;84.80;;;;;;5094511;28;20032;-77
2023/07/23 04:23:48;;;;;;;10.40;4.90;;;17.80;85.70;;;;;;5094367;28;20084;-77
2023/07/23 04:26:15;;;;;;;8.38;4.10;;;17.80;84.90;;;;;;5095305;28;20028;-77
2023/07/23 04:28:41;;;;;;;7.13;4.10;;;17.80;85.20;;;;;;5094390;28;20056;-77
2023/07/23 04:31:06;;;;;;;8.98;4.40;;;17.80;84.60;;;;;;5094307;28;20036;-77
2023/07/23 04:33:32;;;;;;;6.63;3.50;;;17.80;84.70;;;;;;5094104;28;20029;-77
2023/07/23 04:35:58;;;;;;;8.73;4.40;;;17.80;84.70;;;;;;5077392;28;20405;-78
2023/07/23 04:38:23;;;;;;;9.38;3.88;;;17.80;84.60;;;;;;5094141;28;20021;-77
2023/07/23 04:40:49;;;;;;;5.57;3.50;;;17.80;84.60;;;;;;5077378;28;20035;-78
2023/07/23 04:43:14;;;;;;;6.93;4.18;;;17.80;84.50;;;;;;5095003;28;20101;-77
2023/07/23 04:45:41;;;;;;;11.68;4.72;;;17.80;84.50;;;;;;5094008;28;20032;-78
2023/07/23 04:48:06;;;;;;;6.78;3.63;;;17.80;84.10;;;;;;5094896;28;20024;-78
2023/07/23 04:50:32;;;;;;;9.30;3.38;;;17.80;84.30;;;;;;5093971;28;20031;-78
2023/07/23 04:52:57;;;;;;;5.65;3.78;;;17.80;84.50;;;;;;5093723;28;20032;-78
2023/07/23 04:55:25;;;;;;;6.25;3.92;;;17.80;84.10;;;;;;5093746;28;20028;-78
2023/07/23 04:57:50;;;;;;;10.25;3.80;;;17.80;84.20;;;;;;5093508;28;20044;-78
2023/07/23 05:00:17;;;;;;;8.15;3.50;;;17.90;83.60;;;;;;5076966;28;20036;-78
2023/07/23 05:02:42;;;;;;;10.10;3.95;;;17.80;83.90;;;;;;5093676;28;20036;-78
2023/07/23 05:05:08;;;;;;;5.78;3.63;;;17.90;83.60;;;;;;5093577;28;20115;-77
2023/07/23 05:07:34;;;;;;;8.43;4.40;;;17.90;83.40;;;;;;5093453;28;20554;-77
2023/07/23 05:09:59;;;;;;;9.73;4.03;;;18.00;83.10;;;;;;5094436;28;20029;-77
2023/07/23 05:12:26;;;;;;;7.72;3.35;;;18.00;83.20;;;;;;5094338;28;20044;-78
2023/07/23 05:14:51;;;;;;;8.48;3.75;;;17.90;82.90;;;;;;5093457;28;20040;-78
2023/07/23 05:17:17;;;;;;;9.95;3.67;;;18.00;82.90;;;;;;5093414;28;20088;-78
2023/07/23 05:19:43;;;;;;;7.95;3.83;;;18.00;82.80;;;;;;5076593;28;20031;-78
2023/07/23 05:22:08;;;;;;;5.50;3.42;;;18.00;82.70;;;;;;5094227;28;20040;-79
2023/07/23 05:24:34;;;;;;;6.20;3.47;;;18.00;82.60;;;;;;5076552;28;20032;-78
2023/07/23 05:26:59;;;;;;;5.43;3.33;;;18.00;82.50;;;;;;5094136;28;20040;-79
2023/07/23 05:29:25;;;;;;;6.78;3.63;;;18.10;82.40;;;;;;5093135;28;20048;-78
2023/07/23 05:31:50;;;;;;;7.00;3.65;;;18.10;82.60;;;;;;5093979;28;20033;-79
2023/07/23 05:34:16;;;;;;;5.75;3.25;;;18.10;82.30;;;;;;5092968;28;20063;-78
2023/07/23 05:36:42;;;;;;;4.85;3.13;;;18.10;82.50;;;;;;5093933;28;20084;-78
2023/07/23 05:39:09;;;;;;;6.10;3.47;;;18.10;82.40;;;;;;5092965;28;20021;-78
2023/07/23 05:41:34;;;;;;;9.75;3.83;;;18.00;82.40;;;;;;5093885;28;20353;-78
2023/07/23 05:44:00;;;;;;;5.72;3.17;;;18.10;82.70;;;;;;5093927;28;20051;-78
2023/07/23 05:46:26;;;;;;;5.93;3.33;;;18.10;82.80;;;;;;5092907;28;20025;-78
2023/07/23 05:48:51;;;;;;;7.35;3.38;;;18.10;82.90;;;;;;5093739;28;20033;-78
2023/07/23 05:51:17;;;;;;;5.72;3.53;;;18.10;83.10;;;;;;5093703;28;20070;-78
2023/07/23 05:53:43;;;;;;;5.82;3.70;;;18.10;83.50;;;;;;5092579;28;20088;-78
2023/07/23 05:56:08;;;;;;;5.05;3.28;;;18.10;83.20;;;;;;5092398;28;20028;-77
2023/07/23 05:58:34;;;;;;;4.90;3.05;;;18.10;83.70;;;;;;5093798;28;20091;-79
2023/07/23 06:01:00;;;;;;;8.43;3.33;;;18.00;83.40;;;;;;5092668;28;20029;-78
2023/07/23 06:03:25;;;;;;;7.35;3.30;;;18.00;83.80;;;;;;5092790;28;20048;-78
2023/07/23 06:05:51;;;;;;;6.25;3.60;;;18.00;84.10;;;;;;5093527;28;20029;-78
2023/07/23 06:08:16;;;;;;;4.70;2.90;;;18.00;84.20;;;;;;5092576;28;20036;-77
2023/07/23 06:10:42;;;;;;;6.45;3.08;;;18.00;84.10;;;;;;5093474;28;20028;-78
2023/07/23 06:13:08;;;;;;;5.38;3.17;;;18.00;84.20;;;;;;5092408;28;20028;-77
2023/07/23 06:15:34;;;;;;;5.55;3.10;;;18.00;83.70;;;;;;5092468;28;20025;-77
2023/07/23 06:17:59;;;;;;;7.13;2.92;;;18.00;84.10;;;;;;5075595;28;20040;-77
2023/07/23 06:20:25;;;;;;;5.05;2.95;;;17.90;84.00;;;;;;5092513;28;20059;-78
2023/07/23 06:22:51;;;;;;;6.63;2.97;;;17.90;84.70;;;;;;5075715;28;20036;-78
2023/07/23 06:25:16;;;;;;;5.38;2.72;;;17.90;85.00;;;;;;5093305;28;20023;-78
2023/07/23 06:27:42;;;;;;;4.95;3.20;;;17.80;85.40;;;;;;5092152;28;20037;-78
2023/07/23 06:30:08;;;;;;;5.53;3.20;;;17.80;85.60;;;;;;5092190;28;20044;-78
2023/07/23 06:32:33;;;;;;;5.90;3.30;;;17.80;85.80;;;;;;5093150;28;20055;-79
2023/07/23 06:34:59;;;;;;;6.13;3.20;;;17.70;86.10;;;;;;5093164;28;20024;-79
2023/07/23 06:37:25;;;;;;;5.68;2.90;;;17.80;85.90;;;;;;5092325;28;20034;-80
2023/07/23 06:39:50;;;;;;;7.00;3.17;;;17.80;86.00;;;;;;5092272;28;20031;-78
2023/07/23 06:42:16;;;;;;;10.82;3.30;;;17.80;85.90;;;;;;5092180;28;20016;-79
2023/07/23 06:44:42;;;;;;;5.88;3.10;;;17.80;86.00;;;;;;5092130;28;20099;-79
2023/07/23 06:47:07;;;;;;;6.07;2.88;;;17.80;86.00;;;;;;5093119;28;20023;-78
2023/07/23 06:49:33;;;;;;;5.47;3.00;;;17.60;85.80;;;;;;5093107;28;20048;-80
2023/07/23 06:51:59;;;;;;;9.93;3.20;;;17.60;87.00;;;;;;5092097;28;20033;-79
2023/07/23 06:54:24;;;;;;;5.88;3.17;;;17.50;87.80;;;;;;5092115;28;20028;-79
2023/07/23 06:56:54;;;;;;;4.80;3.22;;;17.60;87.80;;;;;;5091895;28;20052;-78
2023/07/23 06:59:20;;;;;;;7.32;3.10;;;17.50;88.30;;;;;;5092211;28;20029;-77
2023/07/23 07:01:46;;;;;;;6.25;3.10;;;17.50;88.30;;;;;;5092047;28;20036;-78
2023/07/23 07:04:11;;;;;;;4.97;3.17;;;17.60;88.50;;;;;;5092960;28;20106;-78
2023/07/23 07:06:37;;;;;;;4.82;2.83;;;17.40;88.80;;;;;;5092880;28;20597;-78
2023/07/23 07:09:03;;;;;;;5.97;3.08;;;17.50;89.20;;;;;;5091919;28;20039;-77
2023/07/23 07:11:28;;;;;;;5.22;3.17;;;17.40;89.10;;;;;;5092878;28;20055;-78
2023/07/23 07:13:54;;;;;;;6.63;3.25;;;17.40;89.10;;;;;;5092752;28;20123;-78
2023/07/23 07:16:20;;;;;;;6.28;2.90;;;17.40;88.80;;;;;;5091865;28;20054;-78
2023/07/23 07:18:46;;;;;;;8.35;3.70;;;17.40;89.30;;;;;;5091860;28;20017;-77
2023/07/23 07:21:11;;;;;;;5.70;3.40;;;17.40;89.70;;;;;;5092743;28;20035;-77
2023/07/23 07:23:37;;;;;;;5.22;2.75;;;17.40;89.20;;;;;;5092728;28;20025;-78
2023/07/23 07:26:03;;;;;;;4.35;2.88;;;17.40;89.10;;;;;;5092725;28;20087;-78
2023/07/23 07:28:33;;;;;;;4.80;2.72;;;17.40;89.80;;;;;;5092666;28;20043;-78
2023/07/23 07:31:00;;;;;;;6.18;2.88;;;17.40;90.00;;;;;;5092683;28;20103;-78
2023/07/23 07:33:27;;;;;;;6.45;3.08;;;17.40;90.00;;;;;;5091526;28;20036;-78
2023/07/23 07:35:57;;;;;;;4.57;2.47;;;17.30;90.50;;;;;;5092616;28;20025;-78
2023/07/23 07:38:23;;;;;;;7.57;3.25;;;17.30;91.00;;;;;;5092695;28;20059;-77
2023/07/23 07:40:50;;;;;;;6.78;2.75;;;17.30;91.30;;;;;;5094159;28;20047;-78
2023/07/23 07:43:15;;;;;;;5.40;3.40;;;17.20;91.20;;;;;;5096151;28;20039;-78
2023/07/23 07:45:41;;;;;;;6.63;3.35;;;17.30;91.50;;;;;;5096110;28;20048;-78
2023/07/23 07:48:09;;;;;;;5.97;3.50;;;17.20;91.70;;;;;;5095065;28;20406;-77
2023/07/23 07:50:34;;;;;;;6.63;2.75;;;17.20;91.70;;;;;;5078556;28;20020;-78
2023/07/23 07:53:00;;;;;;;7.38;2.90;;;17.20;91.90;;;;;;5094902;28;20127;-78
2023/07/23 07:55:25;;;;;;;5.95;3.20;;;17.10;91.90;;;;;;5095022;28;20040;-78
2023/07/23 07:57:51;;;;;;;6.38;3.10;;;17.20;92.00;;;;;;5094851;28;20074;-78
2023/07/23 08:00:17;;;;;;;5.30;3.22;;;17.20;92.10;;;;;;5095888;28;20032;-77
2023/07/23 08:02:43;;;;;;;7.65;3.72;;;17.20;92.30;;;;;;5094866;28;20083;-78
2023/07/23 08:05:09;;;;;;;9.32;3.67;;;17.20;92.00;;;;;;5094761;28;20025;-78
2023/07/23 08:07:35;;;;;;;7.40;3.70;;;17.20;92.30;;;;;;5077991;28;20122;-78
2023/07/23 08:10:02;;;;;;;7.07;3.63;;;17.20;92.20;;;;;;5094851;28;20054;-78
2023/07/23 08:12:28;;;;;;;6.53;3.35;;;17.20;92.30;;;;;;5095544;28;20083;-78
2023/07/23 08:14:56;;;;;;;8.95;3.53;;;17.20;92.30;;;;;;5077993;28;20058;-78
2023/07/23 08:17:22;;;;;;;6.55;3.70;;;17.30;92.50;;;;;;5095665;28;20017;-78
2023/07/23 08:19:48;;;;;;;6.95;3.58;;;17.30;92.10;;;;;;5094530;28;20035;-77
2023/07/23 08:22:14;;;;;;;6.88;3.55;;;17.30;92.00;;;;;;5094372;28;20059;-78
2023/07/23 08:24:39;;;;;;;8.13;3.95;;;17.40;92.10;;;;;;5094404;28;20036;-78
2023/07/23 08:27:07;;;;;;;8.93;3.78;;;17.50;92.00;;;;;;5094344;28;20047;-78
2023/07/23 08:29:34;;;;;;;7.57;3.33;;;17.50;91.40;;;;;;5094417;28;20028;-77
2023/07/23 08:32:01;;;;;;;6.32;3.13;;;17.50;91.60;;;;;;5095202;28;20028;-76
2023/07/23 08:34:27;;;;;;;7.95;3.85;;;17.60;91.50;;;;;;5095102;28;20028;-76
2023/07/23 08:36:54;;;;;;;7.40;3.10;;;17.60;91.40;;;;;;5094196;28;20037;-76
2023/07/23 08:39:21;;;;;;;5.82;3.15;;;17.60;91.60;;;;;;5095136;28;20040;-76
2023/07/23 08:42:05;;;;;;;4.50;2.72;;;17.60;91.70;;;;;;5077465;28;20070;-76
2023/07/23 08:44:52;;;;;;;5.57;2.85;;;17.60;91.80;;;;;;5094082;28;20506;-76
2023/07/23 08:47:21;;;;;;;9.00;2.60;;;17.60;92.10;;;;;;5093922;28;20021;-76
2023/07/23 08:49:48;;;;;;;4.03;2.30;;;17.60;92.10;;;;;;5094862;28;20020;-76
2023/07/23 08:52:14;;;;;;;5.88;2.75;;;17.60;92.00;;;;;;5094680;28;20050;-77
2023/07/23 08:54:40;;;;;;;6.03;2.58;;;17.70;92.20;;;;;;5094786;28;20024;-77
2023/07/23 08:57:07;;;;;;;5.47;2.42;;;17.60;92.30;;;;;;5094551;28;20546;-76
2023/07/23 08:59:35;;;;;;;4.07;2.22;;;17.50;92.30;;;;;;5094701;28;20029;-77
2023/07/23 09:02:02;;;;;;;4.93;2.92;;;17.50;92.50;;;;;;5094640;28;20021;-77
2023/07/23 09:04:28;;;;;;;4.93;2.63;;;17.50;92.40;;;;;;5094607;28;20025;-76
2023/07/23 09:06:57;;;;;;;3.20;2.08;;;17.50;92.70;;;;;;5093507;28;20383;-76
2023/07/23 09:09:22;;;;;;;4.70;2.10;;;17.50;92.70;;;;;;5094497;28;20021;-76
2023/07/23 09:11:48;;;;;;;4.57;2.05;;;17.60;92.60;;;;;;5076836;28;20020;-76
2023/07/23 09:14:16;;;;;;;3.55;2.00;;;17.60;92.60;;;;;;5094317;28;20021;-77
2023/07/23 09:16:43;;;;;;;3.28;2.00;;;17.50;92.70;;;;;;5093374;28;20016;-76
2023/07/23 09:19:11;;;;;;;2.85;1.88;;;17.60;92.80;;;;;;5094280;28;20021;-76
2023/07/23 09:21:38;;;;;;;4.53;1.95;;;17.60;92.90;;;;;;5094215;28;20020;-77
2023/07/23 09:24:05;;;;;;;4.18;2.17;;;17.60;92.80;;;;;;5094204;28;20539;-77
2023/07/23 09:26:32;;;;;;;3.03;1.73;;;17.60;92.90;;;;;;5094149;28;20078;-76
2023/07/23 09:29:01;;;;;;;3.25;2.08;;;17.60;93.00;;;;;;5094187;28;20055;-76
2023/07/23 09:31:31;;;;;;;4.50;2.85;;;17.70;93.10;;;;;;5094209;28;20012;-76
2023/07/23 09:34:02;;;;;;;4.78;2.17;;;17.70;93.20;;;;;;5093901;28;20048;-76
2023/07/23 09:36:28;;;;;;;5.93;1.88;;;17.80;93.30;;;;;;5094037;28;20035;-76
2023/07/23 09:39:05;;;;;;;2.80;2.00;;;17.70;93.40;;;;;;5093028;28;20084;-77
2023/07/23 09:41:33;;;;;;;3.25;1.80;;;17.80;93.50;;;;;;5093281;28;20044;-76
2023/07/23 09:44:11;;;;;;;3.78;2.58;;;17.70;94.00;;;;;;5093851;28;20024;-76
2023/07/23 09:46:43;;;;;;;3.85;2.08;;;17.70;94.00;;;;;;5093955;28;20096;-76
2023/07/23 09:49:09;;;;;;;4.18;2.15;;;17.60;94.20;;;;;;5093849;28;20030;-76
2023/07/23 09:51:37;;;;;;;4.22;2.38;;;17.60;94.30;;;;;;5093726;28;20029;-76
2023/07/23 09:54:04;;;;;;;3.15;2.00;;;17.60;94.50;;;;;;5092716;28;20024;-77
2023/07/23 09:56:32;;;;;;;3.35;1.80;;;17.60;94.60;;;;;;5092524;28;20055;-75
2023/07/23 09:59:01;;;;;;;3.05;1.95;;;17.60;95.10;;;;;;5093609;28;20431;-76
2023/07/23 10:01:28;;;;;;;2.75;1.50;;;17.60;94.90;;;;;;5092683;28;20170;-76
2023/07/23 10:03:54;;;;;;;2.83;1.52;;;17.60;94.90;;;;;;5093082;28;20054;-76
2023/07/23 10:06:21;;;;;;;3.47;2.10;;;17.60;95.20;;;;;;5093494;28;20028;-76
2023/07/23 10:08:48;;;;;;;3.10;1.77;;;17.60;95.40;;;;;;5093432;28;20027;-76
2023/07/23 10:11:16;;;;;;;4.05;1.75;;;17.60;95.50;;;;;;5092527;28;20052;-76
2023/07/23 10:13:43;;;;;;;3.22;1.90;;;17.60;95.70;;;;;;5092381;28;20029;-76
2023/07/23 10:16:18;;;;;;;3.92;2.20;;;17.70;95.70;;;;;;5093414;28;20024;-75
2023/07/23 10:18:44;;;;;;;3.35;1.80;;;17.80;95.40;;;;;;5093466;28;20027;-76
2023/07/23 10:21:11;;;;;;;3.05;2.10;;;17.70;95.80;;;;;;5092318;28;20066;-75
2023/07/23 10:23:40;;;;;;;2.58;1.80;;;17.70;95.90;;;;;;5075549;28;20024;-77
2023/07/23 10:26:25;;;;;;;3.45;2.03;;;17.60;96.20;;;;;;5093330;28;20080;-78
2023/07/23 10:28:56;;;;;;;4.15;2.50;;;17.70;96.20;;;;;;5093323;28;20398;-77
2023/07/23 10:31:23;;;;;;;3.50;2.03;;;17.70;96.10;;;;;;5092348;28;20024;-77
2023/07/23 10:33:50;;;;;;;4.30;2.20;;;17.70;95.90;;;;;;5092037;28;20054;-77
2023/07/23 10:36:17;;;;;;;2.80;1.90;;;17.70;96.00;;;;;;5093214;28;20434;-77
2023/07/23 10:38:43;;;;;;;3.20;2.08;;;17.70;96.00;;;;;;5093190;28;20025;-77
2023/07/23 10:41:10;;;;;;;3.88;2.08;;;17.60;96.20;;;;;;5092203;28;20013;-77
2023/07/23 10:43:48;;;;;;;3.85;2.38;;;17.60;96.10;;;;;;5075370;28;20033;-76
2023/07/23 10:46:19;;;;;;;3.25;2.10;;;17.60;96.30;;;;;;5093110;28;20029;-76
2023/07/23 10:48:50;;;;;;;3.03;2.05;;;17.60;96.30;;;;;;5093096;28;20080;-76
2023/07/23 10:51:23;;;;;;;2.95;1.92;;;17.70;96.20;;;;;;5092057;28;20054;-77
2023/07/23 10:53:54;;;;;;;4.78;1.95;;;17.60;96.40;;;;;;5091971;28;20029;-77
2023/07/23 10:56:25;;;;;;;3.75;2.00;;;17.60;96.50;;;;;;5092871;28;20063;-76
2023/07/23 10:58:55;;;;;;;3.22;2.13;;;17.60;96.30;;;;;;5093004;28;20016;-76
2023/07/23 11:01:22;;;;;;;2.90;2.05;;;17.60;96.50;;;;;;5092948;28;20050;-76
2023/07/23 11:03:48;;;;;;;3.00;2.00;;;17.60;96.40;;;;;;5092005;28;20020;-75
2023/07/23 11:06:32;;;;;;;4.65;2.45;;;17.70;96.30;;;;;;5091955;28;20031;-75
2023/07/23 11:09:08;;;;;;;3.47;2.22;;;17.80;96.40;;;;;;5092883;28;20064;-78
2023/07/23 11:11:36;;;;;;;3.40;2.42;;;17.80;96.40;;;;;;5092924;28;20108;-77
2023/07/23 11:14:23;;;;;;;3.42;2.35;;;17.70;96.70;;;;;;5091784;28;20028;-77
2023/07/23 11:16:51;;;;;;;4.10;2.78;;;17.70;96.50;;;;;;5095713;28;20020;-77
2023/07/23 11:19:18;;;;;;;4.50;2.80;;;17.80;96.80;;;;;;5096566;28;20067;-77
2023/07/23 11:21:49;;;;;;;4.03;2.67;;;17.80;96.80;;;;;;5095530;28;20024;-77
2023/07/23 11:24:16;;;;;;;4.28;2.78;;;17.80;96.80;;;;;;5095536;28;20024;-77
2023/07/23 11:26:42;;;;;;;3.88;2.92;;;17.80;96.70;;;;;;5096489;28;20051;-76
2023/07/23 11:29:08;;;;;;;4.20;2.88;;;17.80;96.80;;;;;;5095405;28;20028;-77
2023/07/23 11:31:34;;;;;;;4.60;3.28;;;17.80;97.00;;;;;;5078784;28;20025;-77
2023/07/23 11:34:00;;;;;;;5.13;3.33;;;17.80;96.90;;;;;;5095256;28;20032;-77
2023/07/23 11:36:29;;;;;;;5.43;3.65;;;17.90;96.80;;;;;;5095356;28;20031;-77
2023/07/23 11:38:56;;;;;;;5.25;3.75;;;18.00;96.80;;;;;;5095252;28;20081;-77
2023/07/23 11:41:39;;;;;;;6.65;4.20;;;18.00;96.90;;;;;;5096194;28;20017;-77
2023/07/23 11:44:04;;;;;;;;;;;18.10;96.90;;;;;;5095735;28;20033;-77
2023/07/23 11:46:35;;;;;;;6.70;4.03;;;18.20;97.00;;;;;;5095110;28;19912;-77
2023/07/23 11:49:02;;;;;;;6.85;3.50;;;18.30;96.60;;;;;;5096137;28;20020;-77
2023/07/23 11:51:33;;;;;;;5.07;3.70;;;18.30;96.80;;;;;;5095076;28;20037;-77
2023/07/23 11:54:13;;;;;;;5.93;4.20;;;18.40;96.70;;;;;;5094894;28;20052;-77
2023/07/23 11:56:40;;;;;;;5.18;4.13;;;18.40;96.20;;;;;;5095912;28;20086;-77
2023/07/23 11:59:08;;;;;;;6.78;4.20;;;18.50;96.60;;;;;;5095959;28;20487;-77
2023/07/23 12:01:35;;;;;;;7.15;4.47;;;18.60;96.40;;;;;;5094809;28;20024;-77
2023/07/23 12:04:03;;;;;;;7.60;5.00;;;18.60;95.50;;;;;;5094768;28;20035;-76
2023/07/23 12:06:31;;;;;;;6.22;4.38;;;18.70;96.00;;;;;;5094737;28;20036;-77
2023/07/23 12:08:57;;;;;;;8.43;4.80;;;18.90;95.80;;;;;;5095686;28;20048;-77
2023/07/23 12:11:25;;;;;;;7.07;4.28;;;19.00;96.00;;;;;;5094619;28;20372;-77
2023/07/23 12:13:53;;;;;;;6.30;4.45;;;19.00;95.30;;;;;;5095541;28;20024;-77
2023/07/23 12:16:38;;;;;;;6.30;3.92;;;19.10;95.00;;;;;;5094518;28;20098;-77
2023/07/23 12:19:08;;;;;;;6.80;4.22;;;19.20;94.60;;;;;;5094528;28;20025;-77
2023/07/23 12:21:35;;;;;;;7.32;4.65;;;19.20;94.60;;;;;;5095492;28;20032;-77
2023/07/23 12:24:18;;;;;;;5.68;4.38;;;19.40;94.80;;;;;;5094465;28;20024;-77
2023/07/23 12:26:50;;;;;;;5.03;3.42;;;19.50;94.80;;;;;;5094009;28;20024;-77
2023/07/23 12:29:16;;;;;;;6.50;4.00;;;19.60;94.40;;;;;;5095346;28;20021;-77
2023/07/23 12:31:43;;;;;;;6.53;3.78;;;19.60;93.80;;;;;;5094272;28;20033;-77
2023/07/23 12:34:11;;;;;;;5.47;3.90;;;19.60;94.30;;;;;;5095076;28;20040;-77
2023/07/23 12:36:37;;;;;;;5.88;3.88;;;19.60;93.90;;;;;;5095234;28;20118;-77
2023/07/23 12:39:08;;;;;;;7.05;4.13;;;19.70;93.60;;;;;;5094208;28;20048;-77
2023/07/23 12:41:34;;;;;;;6.90;3.83;;;19.70;93.40;;;;;;5095156;28;20020;-77
2023/07/23 12:44:01;;;;;;;5.43;3.63;;;19.70;93.10;;;;;;5094102;28;20048;-77